メインページ
METAR-TAF:

METAR-TAF

空港 :

Chibougamau, ケベック州, カナダ

緯度: 49-46N, 経度: 074-32W, 海抜: 388m

現時点の気象観測

当レポートは1時間5分前の16:00(UTC)に作成
北西の風 6kt、最大15ktの突風を伴う、西からの間で変化する
気温 17°C
湿度 55%
気圧 1009 hPa
視程: 14.5km
高度3600ftの千切れ雲あり
高度9500ftの千切れ雲あり

METAR: CYMT 211600Z AUTO 32006G15KT 270V350 9SM BKN036 BKN095 17/08 A2980 RMK SLP096 DENSITY ALT 1800FT

時間: 13:05 (17:05 UTC)

予報

当レポートは5時間22分前の11:43(UTC)に作成
予報は21日の 12時(UTC)から 21日の 24時(UTC)まで有効
北/北西の風 5kt
視程: 10km
高度2000ftの雲は散在している
高度14000ftの千切れ雲あり
21日の 12時(UTC)から 21日の 16時(UTC)まで一時的に
高度2000ftの曇り
21日の 1600時(UTC)から
北/北西の風 10kt
視程: 10km
高度4000ftの千切れ雲あり

TAF: CYMT 211143Z 2112/2124 34005KT P6SM SCT020 BKN140 TEMPO 2112/2116 OVC020 FM211600 33010KT P6SM BKN040 RMK FCST BASED ON AUTO OBS. NXT FCST BY 211800Z

4,000以上の空港の気象観測と天気予報(METAR報とTAF報)

利用可能な観測所は地図上に黄色い丸と赤い丸で示す。

丸の上にカーソルを重ねると観測所名を参照できる。

次にクリックすると気象観測と天気予報を参照できる。

マップの切り替え:黒色「×」印の緑ボタンをクリックして拡大、「-」印の緑ボタンをクリックして縮小、緑色の三角印をクリックして隣りの地図に切り替え


METAR-TAF: